sensor_id;sensor_type;location;lat;lon;timestamp;pressure;altitude;pressure_sealevel;temperature;humidity
29163;BME280;20331;53.144;8.208;2023-12-29T00:02:24;100369.69;;;11.57;86.55
29163;BME280;20331;53.144;8.208;2023-12-29T00:07:46;100391.19;;;11.59;86.61
29163;BME280;20331;53.144;8.208;2023-12-29T00:13:08;100375.91;;;11.53;87.15
29163;BME280;20331;53.144;8.208;2023-12-29T00:18:29;100360.22;;;11.56;87.91
29163;BME280;20331;53.144;8.208;2023-12-29T00:23:51;100345.13;;;11.45;88.92
29163;BME280;20331;53.144;8.208;2023-12-29T00:29:14;100370.69;;;11.33;89.81
29163;BME280;20331;53.144;8.208;2023-12-29T00:34:36;100368.81;;;11.36;88.77
29163;BME280;20331;53.144;8.208;2023-12-29T00:39:59;100366.81;;;11.43;88.61
29163;BME280;20331;53.144;8.208;2023-12-29T00:45:20;100377.31;;;11.40;90.49
29163;BME280;20331;53.144;8.208;2023-12-29T00:50:42;100383.22;;;11.22;92.29
29163;BME280;20331;53.144;8.208;2023-12-29T00:56:10;100375.59;;;11.19;91.82
29163;BME280;20331;53.144;8.208;2023-12-29T01:01:35;100339.97;;;11.24;91.74
29163;BME280;20331;53.144;8.208;2023-12-29T01:06:57;100364.06;;;11.26;91.11
29163;BME280;20331;53.144;8.208;2023-12-29T01:12:19;100340.88;;;11.23;90.84
29163;BME280;20331;53.144;8.208;2023-12-29T01:17:41;100333.72;;;11.29;90.38
29163;BME280;20331;53.144;8.208;2023-12-29T01:23:02;100331.06;;;11.31;90.00
29163;BME280;20331;53.144;8.208;2023-12-29T01:28:24;100332.75;;;11.32;89.72
29163;BME280;20331;53.144;8.208;2023-12-29T01:33:50;100333.72;;;11.29;91.05
29163;BME280;20331;53.144;8.208;2023-12-29T01:39:11;100338.91;;;11.07;92.95
29163;BME280;20331;53.144;8.208;2023-12-29T01:44:33;100331.38;;;11.01;93.54
29163;BME280;20331;53.144;8.208;2023-12-29T01:49:55;100318.25;;;10.84;94.51
29163;BME280;20331;53.144;8.208;2023-12-29T01:55:18;100318.69;;;10.74;93.17
29163;BME280;20331;53.144;8.208;2023-12-29T02:00:41;100325.16;;;10.62;94.18
29163;BME280;20331;53.144;8.208;2023-12-29T02:06:06;100314.09;;;10.59;96.25
29163;BME280;20331;53.144;8.208;2023-12-29T02:11:27;100348.44;;;10.62;96.64
29163;BME280;20331;53.144;8.208;2023-12-29T02:17:15;100321.13;;;10.55;99.48
29163;BME280;20331;53.144;8.208;2023-12-29T02:22:42;100305.81;;;10.51;100.00
29163;BME280;20331;53.144;8.208;2023-12-29T02:28:10;100297.97;;;10.52;99.70
29163;BME280;20331;53.144;8.208;2023-12-29T02:33:38;100271.97;;;10.55;98.67
29163;BME280;20331;53.144;8.208;2023-12-29T02:39:02;100245.59;;;10.47;100.00
29163;BME280;20331;53.144;8.208;2023-12-29T02:44:24;100231.66;;;10.50;99.63
29163;BME280;20331;53.144;8.208;2023-12-29T02:49:45;100224.09;;;10.45;99.64
29163;BME280;20331;53.144;8.208;2023-12-29T02:55:07;100244.91;;;10.42;100.00
29163;BME280;20331;53.144;8.208;2023-12-29T03:00:29;100241.66;;;10.37;100.00
29163;BME280;20331;53.144;8.208;2023-12-29T03:05:51;100289.47;;;10.27;100.00
29163;BME280;20331;53.144;8.208;2023-12-29T03:11:13;100285.41;;;10.20;100.00
29163;BME280;20331;53.144;8.208;2023-12-29T03:16:34;100408.72;;;9.67;100.00
29163;BME280;20331;53.144;8.208;2023-12-29T03:21:56;100399.03;;;7.36;98.39
29163;BME280;20331;53.144;8.208;2023-12-29T03:27:17;100346.56;;;6.71;100.00
29163;BME280;20331;53.144;8.208;2023-12-29T03:32:39;100298.59;;;6.70;100.00
29163;BME280;20331;53.144;8.208;2023-12-29T03:38:01;100287.97;;;6.85;100.00
29163;BME280;20331;53.144;8.208;2023-12-29T03:43:23;100291.56;;;7.13;100.00
29163;BME280;20331;53.144;8.208;2023-12-29T03:48:45;100322.88;;;7.31;100.00
29163;BME280;20331;53.144;8.208;2023-12-29T03:54:07;100307.94;;;7.75;100.00
29163;BME280;20331;53.144;8.208;2023-12-29T03:59:28;100266.31;;;7.90;100.00
29163;BME280;20331;53.144;8.208;2023-12-29T04:04:52;100261.06;;;7.93;100.00
29163;BME280;20331;53.144;8.208;2023-12-29T04:10:14;100262.31;;;8.09;100.00
29163;BME280;20331;53.144;8.208;2023-12-29T04:15:35;100257.31;;;8.34;100.00
29163;BME280;20331;53.144;8.208;2023-12-29T04:20:57;100238.88;;;8.48;100.00
29163;BME280;20331;53.144;8.208;2023-12-29T04:26:19;100242.72;;;8.62;100.00
29163;BME280;20331;53.144;8.208;2023-12-29T04:31:41;100239.97;;;8.93;100.00
29163;BME280;20331;53.144;8.208;2023-12-29T04:37:03;100222.34;;;9.05;100.00
29163;BME280;20331;53.144;8.208;2023-12-29T04:42:27;100226.69;;;9.30;100.00
29163;BME280;20331;53.144;8.208;2023-12-29T04:47:49;100215.03;;;9.43;100.00
29163;BME280;20331;53.144;8.208;2023-12-29T04:53:11;100247.22;;;9.57;100.00
29163;BME280;20331;53.144;8.208;2023-12-29T04:58:32;100242.84;;;9.82;100.00
29163;BME280;20331;53.144;8.208;2023-12-29T05:03:54;100230.72;;;9.84;100.00
29163;BME280;20331;53.144;8.208;2023-12-29T05:09:16;100242.28;;;9.97;100.00
29163;BME280;20331;53.144;8.208;2023-12-29T05:14:37;100251.34;;;10.09;100.00
29163;BME280;20331;53.144;8.208;2023-12-29T05:19:59;100247.88;;;10.10;100.00
29163;BME280;20331;53.144;8.208;2023-12-29T05:25:21;100256.53;;;10.09;100.00
29163;BME280;20331;53.144;8.208;2023-12-29T05:30:44;100259.13;;;10.07;100.00
29163;BME280;20331;53.144;8.208;2023-12-29T05:36:07;100275.41;;;10.11;100.00
29163;BME280;20331;53.144;8.208;2023-12-29T05:41:29;100288.31;;;10.11;100.00
29163;BME280;20331;53.144;8.208;2023-12-29T05:46:51;100282.28;;;10.12;100.00
29163;BME280;20331;53.144;8.208;2023-12-29T05:52:13;100290.97;;;10.09;100.00
29163;BME280;20331;53.144;8.208;2023-12-29T05:57:35;100299.38;;;10.16;100.00
29163;BME280;20331;53.144;8.208;2023-12-29T06:02:56;100320.13;;;10.13;100.00
29163;BME280;20331;53.144;8.208;2023-12-29T06:08:18;100311.25;;;10.20;100.00
29163;BME280;20331;53.144;8.208;2023-12-29T06:13:40;100293.41;;;10.14;100.00
29163;BME280;20331;53.144;8.208;2023-12-29T06:19:01;100304.41;;;10.19;99.76
29163;BME280;20331;53.144;8.208;2023-12-29T06:24:23;100313.19;;;10.15;99.24
29163;BME280;20331;53.144;8.208;2023-12-29T06:29:45;100297.66;;;10.15;98.21
29163;BME280;20331;53.144;8.208;2023-12-29T06:35:07;100291.94;;;10.30;95.85
29163;BME280;20331;53.144;8.208;2023-12-29T06:40:31;100292.78;;;10.31;94.46
29163;BME280;20331;53.144;8.208;2023-12-29T06:45:52;100293.66;;;10.30;95.11
29163;BME280;20331;53.144;8.208;2023-12-29T06:51:18;100285.25;;;10.25;94.69
29163;BME280;20331;53.144;8.208;2023-12-29T06:56:40;100299.91;;;10.24;96.00
29163;BME280;20331;53.144;8.208;2023-12-29T07:02:02;100309.13;;;10.31;94.95
29163;BME280;20331;53.144;8.208;2023-12-29T07:07:24;100292.28;;;10.21;97.19
29163;BME280;20331;53.144;8.208;2023-12-29T07:12:46;100261.06;;;10.02;98.30
29163;BME280;20331;53.144;8.208;2023-12-29T07:18:08;100287.97;;;9.97;97.59
29163;BME280;20331;53.144;8.208;2023-12-29T07:23:30;100270.94;;;9.91;98.32
29163;BME280;20331;53.144;8.208;2023-12-29T07:28:52;100300.09;;;9.95;98.78
29163;BME280;20331;53.144;8.208;2023-12-29T07:34:15;100281.78;;;10.01;100.00
29163;BME280;20331;53.144;8.208;2023-12-29T07:39:37;100270.53;;;10.02;100.00
29163;BME280;20331;53.144;8.208;2023-12-29T07:44:59;100267.88;;;10.05;100.00
29163;BME280;20331;53.144;8.208;2023-12-29T07:50:22;100281.50;;;10.08;99.83
29163;BME280;20331;53.144;8.208;2023-12-29T07:55:47;100254.38;;;10.20;99.38
29163;BME280;20331;53.144;8.208;2023-12-29T08:01:12;100270.75;;;10.21;99.46
29163;BME280;20331;53.144;8.208;2023-12-29T08:06:33;100278.78;;;10.13;100.00
29163;BME280;20331;53.144;8.208;2023-12-29T08:11:55;100272.97;;;10.06;100.00
29163;BME280;20331;53.144;8.208;2023-12-29T08:17:19;100270.22;;;10.11;100.00
29163;BME280;20331;53.144;8.208;2023-12-29T08:22:41;100269.41;;;10.10;100.00
29163;BME280;20331;53.144;8.208;2023-12-29T08:28:03;100290.91;;;10.11;100.00
29163;BME280;20331;53.144;8.208;2023-12-29T08:33:25;100297.88;;;10.09;100.00
29163;BME280;20331;53.144;8.208;2023-12-29T08:38:47;100311.50;;;10.14;99.93
29163;BME280;20331;53.144;8.208;2023-12-29T08:44:08;100316.34;;;9.98;97.77
29163;BME280;20331;53.144;8.208;2023-12-29T08:49:30;100307.03;;;9.70;98.68
29163;BME280;20331;53.144;8.208;2023-12-29T08:54:52;100318.88;;;9.51;100.00
29163;BME280;20331;53.144;8.208;2023-12-29T09:00:14;100307.13;;;9.42;100.00
29163;BME280;20331;53.144;8.208;2023-12-29T09:05:35;100309.78;;;9.41;100.00
29163;BME280;20331;53.144;8.208;2023-12-29T09:10:57;100307.81;;;9.47;100.00
29163;BME280;20331;53.144;8.208;2023-12-29T09:16:19;100307.50;;;9.56;100.00
29163;BME280;20331;53.144;8.208;2023-12-29T09:21:40;100326.31;;;9.60;100.00
29163;BME280;20331;53.144;8.208;2023-12-29T09:27:02;100304.59;;;9.65;100.00
29163;BME280;20331;53.144;8.208;2023-12-29T09:32:24;100302.53;;;9.75;100.00
29163;BME280;20331;53.144;8.208;2023-12-29T09:37:50;100319.84;;;9.73;100.00
29163;BME280;20331;53.144;8.208;2023-12-29T09:43:12;100303.13;;;9.83;100.00
29163;BME280;20331;53.144;8.208;2023-12-29T09:48:36;100315.78;;;9.90;100.00
29163;BME280;20331;53.144;8.208;2023-12-29T09:53:59;100320.88;;;9.92;100.00
29163;BME280;20331;53.144;8.208;2023-12-29T09:59:22;100301.69;;;9.99;100.00
29163;BME280;20331;53.144;8.208;2023-12-29T10:04:45;100305.19;;;9.96;100.00
29163;BME280;20331;53.144;8.208;2023-12-29T10:10:07;100317.00;;;10.03;100.00
29163;BME280;20331;53.144;8.208;2023-12-29T10:15:56;100308.63;;;9.97;100.00
29163;BME280;20331;53.144;8.208;2023-12-29T10:21:29;100292.84;;;9.81;100.00
29163;BME280;20331;53.144;8.208;2023-12-29T10:26:51;100281.00;;;9.76;100.00
29163;BME280;20331;53.144;8.208;2023-12-29T10:32:14;100300.44;;;9.86;100.00
29163;BME280;20331;53.144;8.208;2023-12-29T10:37:39;100303.47;;;9.97;99.37
29163;BME280;20331;53.144;8.208;2023-12-29T10:43:01;100298.50;;;9.91;100.00
29163;BME280;20331;53.144;8.208;2023-12-29T10:48:28;100310.56;;;9.92;100.00
29163;BME280;20331;53.144;8.208;2023-12-29T10:53:54;100309.75;;;9.90;100.00
29163;BME280;20331;53.144;8.208;2023-12-29T10:59:19;100314.25;;;9.85;100.00
29163;BME280;20331;53.144;8.208;2023-12-29T11:04:40;100296.25;;;9.82;100.00
29163;BME280;20331;53.144;8.208;2023-12-29T11:10:04;100308.13;;;9.87;100.00
29163;BME280;20331;53.144;8.208;2023-12-29T11:15:27;100294.19;;;9.91;100.00
29163;BME280;20331;53.144;8.208;2023-12-29T11:20:49;100284.50;;;9.98;100.00
29163;BME280;20331;53.144;8.208;2023-12-29T11:26:11;100292.91;;;10.03;100.00
29163;BME280;20331;53.144;8.208;2023-12-29T11:31:33;100291.34;;;9.99;100.00
29163;BME280;20331;53.144;8.208;2023-12-29T11:37:10;100275.72;;;10.02;100.00
29163;BME280;20331;53.144;8.208;2023-12-29T11:42:40;100276.56;;;10.02;100.00
29163;BME280;20331;53.144;8.208;2023-12-29T11:48:02;100255.66;;;10.08;100.00
29163;BME280;20331;53.144;8.208;2023-12-29T11:53:31;100260.63;;;10.14;100.00
29163;BME280;20331;53.144;8.208;2023-12-29T11:58:54;100264.41;;;10.29;98.23
29163;BME280;20331;53.144;8.208;2023-12-29T12:04:36;100245.38;;;10.30;96.45
29163;BME280;20331;53.144;8.208;2023-12-29T12:15:54;100250.34;;;10.36;95.62
29163;BME280;20331;53.144;8.208;2023-12-29T12:21:18;100274.38;;;10.38;93.83
29163;BME280;20331;53.144;8.208;2023-12-29T12:26:40;100280.38;;;10.39;93.37
29163;BME280;20331;53.144;8.208;2023-12-29T12:32:03;100285.63;;;10.37;93.62
29163;BME280;20331;53.144;8.208;2023-12-29T12:37:26;100281.47;;;10.33;94.31
29163;BME280;20331;53.144;8.208;2023-12-29T12:42:48;100299.69;;;10.30;94.03
29163;BME280;20331;53.144;8.208;2023-12-29T12:48:19;100296.31;;;10.28;95.32
29163;BME280;20331;53.144;8.208;2023-12-29T12:53:42;100284.84;;;10.35;95.18
29163;BME280;20331;53.144;8.208;2023-12-29T12:59:05;100292.59;;;10.35;95.05
29163;BME280;20331;53.144;8.208;2023-12-29T13:04:27;100306.97;;;10.42;95.58
29163;BME280;20331;53.144;8.208;2023-12-29T13:09:50;100295.63;;;10.46;94.67
29163;BME280;20331;53.144;8.208;2023-12-29T13:15:13;100302.38;;;10.50;95.39
29163;BME280;20331;53.144;8.208;2023-12-29T13:20:43;100300.91;;;10.43;94.26
29163;BME280;20331;53.144;8.208;2023-12-29T13:26:07;100303.03;;;10.55;92.70
29163;BME280;20331;53.144;8.208;2023-12-29T13:31:31;100304.09;;;10.50;92.66
29163;BME280;20331;53.144;8.208;2023-12-29T13:37:01;100305.72;;;10.52;92.67
29163;BME280;20331;53.144;8.208;2023-12-29T13:42:25;100296.41;;;10.48;93.18
29163;BME280;20331;53.144;8.208;2023-12-29T13:47:50;100313.72;;;10.46;94.20
29163;BME280;20331;53.144;8.208;2023-12-29T13:53:17;100299.13;;;10.45;94.69
29163;BME280;20331;53.144;8.208;2023-12-29T13:58:40;100324.84;;;10.48;94.96
29163;BME280;20331;53.144;8.208;2023-12-29T14:04:03;100317.81;;;10.52;92.62
29163;BME280;20331;53.144;8.208;2023-12-29T14:09:29;100325.50;;;10.53;89.96
29163;BME280;20331;53.144;8.208;2023-12-29T14:14:51;100319.47;;;10.54;89.28
29163;BME280;20331;53.144;8.208;2023-12-29T14:20:32;100318.03;;;10.46;88.42
29163;BME280;20331;53.144;8.208;2023-12-29T14:26:04;100341.63;;;10.38;88.80
29163;BME280;20331;53.144;8.208;2023-12-29T14:31:26;100333.91;;;10.37;89.41
29163;BME280;20331;53.144;8.208;2023-12-29T14:36:47;100335.69;;;10.35;89.67
29163;BME280;20331;53.144;8.208;2023-12-29T14:42:09;100332.38;;;10.31;89.73
29163;BME280;20331;53.144;8.208;2023-12-29T14:47:31;100321.16;;;10.32;89.02
29163;BME280;20331;53.144;8.208;2023-12-29T14:52:53;100331.78;;;10.25;87.38
29163;BME280;20331;53.144;8.208;2023-12-29T14:58:14;100328.06;;;10.32;87.73
29163;BME280;20331;53.144;8.208;2023-12-29T15:03:36;100338.69;;;10.24;87.94
29163;BME280;20331;53.144;8.208;2023-12-29T15:08:58;100346.50;;;10.23;87.62
29163;BME280;20331;53.144;8.208;2023-12-29T15:14:20;100339.88;;;10.16;88.90
29163;BME280;20331;53.144;8.208;2023-12-29T15:19:41;100342.69;;;10.08;88.08
29163;BME280;20331;53.144;8.208;2023-12-29T15:25:03;100331.56;;;10.06;89.20
29163;BME280;20331;53.144;8.208;2023-12-29T15:30:25;100334.28;;;10.03;89.68
29163;BME280;20331;53.144;8.208;2023-12-29T15:35:47;100342.34;;;9.94;89.54
29163;BME280;20331;53.144;8.208;2023-12-29T15:41:08;100339.66;;;9.97;89.42
29163;BME280;20331;53.144;8.208;2023-12-29T15:46:30;100326.16;;;9.89;90.47
29163;BME280;20331;53.144;8.208;2023-12-29T15:51:52;100323.34;;;9.95;90.08
29163;BME280;20331;53.144;8.208;2023-12-29T15:57:13;100335.72;;;9.87;89.09
29163;BME280;20331;53.144;8.208;2023-12-29T16:02:35;100329.53;;;9.91;90.63
29163;BME280;20331;53.144;8.208;2023-12-29T16:07:57;100334.94;;;9.85;90.38
29163;BME280;20331;53.144;8.208;2023-12-29T16:13:19;100330.59;;;9.85;90.63
29163;BME280;20331;53.144;8.208;2023-12-29T16:18:40;100323.09;;;9.78;89.57
29163;BME280;20331;53.144;8.208;2023-12-29T16:24:03;100324.91;;;9.76;90.27
29163;BME280;20331;53.144;8.208;2023-12-29T16:29:31;100319.00;;;9.72;90.43
29163;BME280;20331;53.144;8.208;2023-12-29T16:34:54;100311.34;;;9.69;89.69
29163;BME280;20331;53.144;8.208;2023-12-29T16:40:20;100324.19;;;9.72;89.86
29163;BME280;20331;53.144;8.208;2023-12-29T16:45:43;100332.66;;;9.76;89.84
29163;BME280;20331;53.144;8.208;2023-12-29T16:51:06;100333.53;;;9.75;88.75
29163;BME280;20331;53.144;8.208;2023-12-29T16:56:39;100331.97;;;9.71;89.38
29163;BME280;20331;53.144;8.208;2023-12-29T17:02:10;100333.66;;;9.72;89.65
29163;BME280;20331;53.144;8.208;2023-12-29T17:07:38;100331.13;;;9.70;90.66
29163;BME280;20331;53.144;8.208;2023-12-29T17:13:02;100317.25;;;9.73;89.90
29163;BME280;20331;53.144;8.208;2023-12-29T17:18:25;100294.13;;;9.70;90.54
29163;BME280;20331;53.144;8.208;2023-12-29T17:23:48;100293.31;;;9.68;90.11
29163;BME280;20331;53.144;8.208;2023-12-29T17:29:12;100293.22;;;9.71;90.98
29163;BME280;20331;53.144;8.208;2023-12-29T17:34:39;100294.31;;;9.64;90.53
29163;BME280;20331;53.144;8.208;2023-12-29T17:40:02;100297.75;;;9.64;90.65
29163;BME280;20331;53.144;8.208;2023-12-29T17:45:31;100290.75;;;9.68;91.33
29163;BME280;20331;53.144;8.208;2023-12-29T17:50:53;100299.28;;;9.70;90.81
29163;BME280;20331;53.144;8.208;2023-12-29T17:56:14;100319.16;;;9.68;90.82
29163;BME280;20331;53.144;8.208;2023-12-29T18:01:36;100326.19;;;9.64;92.18
29163;BME280;20331;53.144;8.208;2023-12-29T18:06:58;100331.28;;;9.66;92.10
29163;BME280;20331;53.144;8.208;2023-12-29T18:12:27;100320.94;;;9.66;91.64
29163;BME280;20331;53.144;8.208;2023-12-29T18:17:49;100321.88;;;9.65;91.56
29163;BME280;20331;53.144;8.208;2023-12-29T18:23:11;100332.19;;;9.65;90.80
29163;BME280;20331;53.144;8.208;2023-12-29T18:28:33;100343.41;;;9.64;89.42
29163;BME280;20331;53.144;8.208;2023-12-29T18:33:55;100346.91;;;9.63;87.92
29163;BME280;20331;53.144;8.208;2023-12-29T18:39:18;100343.41;;;9.64;87.81
29163;BME280;20331;53.144;8.208;2023-12-29T18:44:39;100346.00;;;9.64;86.91
29163;BME280;20331;53.144;8.208;2023-12-29T18:50:01;100339.53;;;9.51;84.89
29163;BME280;20331;53.144;8.208;2023-12-29T18:55:23;100325.69;;;9.53;82.78
29163;BME280;20331;53.144;8.208;2023-12-29T19:00:45;100348.56;;;9.39;85.42
29163;BME280;20331;53.144;8.208;2023-12-29T19:06:07;100368.97;;;9.21;85.08
29163;BME280;20331;53.144;8.208;2023-12-29T19:11:28;100379.63;;;9.10;85.23
29163;BME280;20331;53.144;8.208;2023-12-29T19:16:51;100385.91;;;9.01;86.56
29163;BME280;20331;53.144;8.208;2023-12-29T19:22:14;100370.00;;;8.87;85.55
29163;BME280;20331;53.144;8.208;2023-12-29T19:27:36;100383.75;;;8.88;86.78
29163;BME280;20331;53.144;8.208;2023-12-29T19:32:57;100375.44;;;8.78;86.59
29163;BME280;20331;53.144;8.208;2023-12-29T19:38:19;100371.28;;;8.74;87.96
29163;BME280;20331;53.144;8.208;2023-12-29T19:43:41;100368.16;;;8.63;88.87
29163;BME280;20331;53.144;8.208;2023-12-29T19:49:03;100386.44;;;8.56;88.85
29163;BME280;20331;53.144;8.208;2023-12-29T19:54:24;100380.69;;;8.46;90.50
29163;BME280;20331;53.144;8.208;2023-12-29T19:59:47;100382.66;;;8.38;90.42
29163;BME280;20331;53.144;8.208;2023-12-29T20:05:10;100394.84;;;8.33;90.86
29163;BME280;20331;53.144;8.208;2023-12-29T20:10:32;100392.50;;;8.24;91.14
29163;BME280;20331;53.144;8.208;2023-12-29T20:15:54;100400.38;;;8.18;91.83
29163;BME280;20331;53.144;8.208;2023-12-29T20:21:22;100409.16;;;8.11;92.47
29163;BME280;20331;53.144;8.208;2023-12-29T20:26:43;100402.47;;;8.04;92.70
29163;BME280;20331;53.144;8.208;2023-12-29T20:32:05;100411.13;;;8.01;93.45
29163;BME280;20331;53.144;8.208;2023-12-29T20:37:28;100418.16;;;7.95;93.62
29163;BME280;20331;53.144;8.208;2023-12-29T20:42:49;100420.91;;;7.89;93.71
29163;BME280;20331;53.144;8.208;2023-12-29T20:48:13;100423.50;;;7.89;94.38
29163;BME280;20331;53.144;8.208;2023-12-29T20:53:35;100414.94;;;7.87;94.17
29163;BME280;20331;53.144;8.208;2023-12-29T20:58:57;100416.72;;;7.85;94.58
29163;BME280;20331;53.144;8.208;2023-12-29T21:04:19;100425.25;;;7.87;94.87
29163;BME280;20331;53.144;8.208;2023-12-29T21:09:41;100434.69;;;7.86;94.39
29163;BME280;20331;53.144;8.208;2023-12-29T21:15:03;100439.00;;;7.86;94.39
29163;BME280;20331;53.144;8.208;2023-12-29T21:20:25;100439.00;;;7.86;94.96
29163;BME280;20331;53.144;8.208;2023-12-29T21:25:46;100426.94;;;7.88;95.59
29163;BME280;20331;53.144;8.208;2023-12-29T21:31:14;100439.00;;;7.86;94.19
29163;BME280;20331;53.144;8.208;2023-12-29T21:36:46;100434.03;;;7.80;94.63
29163;BME280;20331;53.144;8.208;2023-12-29T21:42:08;100451.25;;;7.78;95.13
29163;BME280;20331;53.144;8.208;2023-12-29T21:47:30;100446.09;;;7.78;95.02
29163;BME280;20331;53.144;8.208;2023-12-29T21:52:53;100447.91;;;7.73;95.49
29163;BME280;20331;53.144;8.208;2023-12-29T21:58:15;100446.16;;;7.75;94.61
29163;BME280;20331;53.144;8.208;2023-12-29T22:03:36;100435.03;;;7.74;95.57
29163;BME280;20331;53.144;8.208;2023-12-29T22:08:58;100431.59;;;7.74;95.12
29163;BME280;20331;53.144;8.208;2023-12-29T22:14:21;100440.19;;;7.74;95.54
29163;BME280;20331;53.144;8.208;2023-12-29T22:19:43;100436.78;;;7.72;95.04
29163;BME280;20331;53.144;8.208;2023-12-29T22:25:05;100443.56;;;7.75;95.26
29163;BME280;20331;53.144;8.208;2023-12-29T22:30:27;100459.06;;;7.73;94.71
29163;BME280;20331;53.144;8.208;2023-12-29T22:35:48;100450.50;;;7.73;94.97
29163;BME280;20331;53.144;8.208;2023-12-29T22:41:12;100458.22;;;7.73;95.04
29163;BME280;20331;53.144;8.208;2023-12-29T22:46:35;100460.78;;;7.74;95.23
29163;BME280;20331;53.144;8.208;2023-12-29T22:51:57;100451.47;;;7.69;95.86
29163;BME280;20331;53.144;8.208;2023-12-29T22:57:18;100447.28;;;7.65;96.09
29163;BME280;20331;53.144;8.208;2023-12-29T23:02:40;100449.13;;;7.58;97.07
29163;BME280;20331;53.144;8.208;2023-12-29T23:08:02;100456.75;;;7.63;97.48
29163;BME280;20331;53.144;8.208;2023-12-29T23:13:25;100470.50;;;7.62;98.13
29163;BME280;20331;53.144;8.208;2023-12-29T23:18:49;100446.59;;;7.57;100.00
29163;BME280;20331;53.144;8.208;2023-12-29T23:24:11;100429.53;;;7.53;100.00
29163;BME280;20331;53.144;8.208;2023-12-29T23:29:32;100432.91;;;7.55;100.00
29163;BME280;20331;53.144;8.208;2023-12-29T23:34:54;100433.78;;;7.55;100.00
29163;BME280;20331;53.144;8.208;2023-12-29T23:40:20;100444.97;;;7.53;100.00
29163;BME280;20331;53.144;8.208;2023-12-29T23:45:42;100451.75;;;7.57;100.00
29163;BME280;20331;53.144;8.208;2023-12-29T23:51:04;100478.44;;;7.54;100.00
29163;BME280;20331;53.144;8.208;2023-12-29T23:56:26;100490.16;;;7.66;100.00
